EFVA

Vaasa Airport

Vaasa, Finland
METAR EFVA 152150Z AUTO 00000KT 0550 R34/P2000 FG FEW002/// 09/08 Q1013
Observed Flight Rules
Aug-15 @ 21:50 UTC (37 minutes ago) Instrument Flight Rules
Visibility Clouds Conditions
547 meters
  • Few at 200' AGL
  • Fog
Temperatures Readings
Current 9°C / 48°F
Dewpoint 8°C / 46°F
Humidity 94%
Altimeter 29.91" Hg
Pressure 1013 hPa
Elevation 4
METAR EFVA 152150Z AUTO 00000KT 0550 R34/P2000 FG FEW002/// 09/08 Q1013
Observed Flight Rules
Aug-15 @ 21:50 UTC
(37 minutes ago)
LIFR
Clouds
  • Few at 200' AGL
Conditions
  • Fog
Temperature Dewpoint
9°C / 48°F 8°C / 46°F
Humidity Altimeter Pressure
94% 29.91" Hg 1013 hPa